Time,TemperatureF,DewpointF,PressureIn,WindDirection,WindDirectionDegrees,WindSpeedMPH,WindSpeedGustMPH,Humidity,HourlyPrecipIn,Conditions,Clouds,dailyrainin,SoftwareType,DateUTC
2013-04-13 10:14:00,46.0,45.8,29.63,SSE,157,2.7,-999.0,99,-99.99,,,0.00,Acu-Link.com,2013-04-13 14:14:00,
2013-04-13 10:29:00,41.5,36.8,29.63,NW,315,4.3,-999.0,83,-99.99,,,0.00,Acu-Link.com,2013-04-13 14:29:00,
2013-04-13 10:44:00,43.2,38.0,29.63,WSW,247,4.7,-999.0,82,-99.99,,,0.00,Acu-Link.com,2013-04-13 14:44:00,
2013-04-13 10:59:00,44.4,38.3,29.63,NNW,337,4.3,-999.0,79,-99.99,,,0.00,Acu-Link.com,2013-04-13 14:59:00,
2013-04-13 11:14:00,46.8,37.5,29.63,NW,315,5.1,-999.0,70,-99.99,,,0.00,Acu-Link.com,2013-04-13 15:14:00,
2013-04-13 11:29:00,45.9,37.4,29.63,West,270,3.1,-999.0,72,-99.99,,,0.00,Acu-Link.com,2013-04-13 15:29:00,
2013-04-13 11:45:00,49.5,39.3,29.62,West,270,1.6,-999.0,68,-99.99,,,0.00,Acu-Link.com,2013-04-13 15:45:00,
2013-04-13 12:00:00,48.6,38.1,29.62,SW,225,1.6,-999.0,67,-99.99,,,0.00,Acu-Link.com,2013-04-13 16:00:00,
2013-04-13 12:15:00,49.3,38.4,29.62,South,180,3.8,-999.0,66,-99.99,,,0.00,Acu-Link.com,2013-04-13 16:15:00,
2013-04-13 12:30:00,48.0,38.0,29.62,NNW,337,4.7,-999.0,68,-99.99,,,0.00,Acu-Link.com,2013-04-13 16:30:00,
2013-04-13 12:45:00,49.6,38.4,29.62,NE,45,4.7,-999.0,65,-99.99,,,0.00,Acu-Link.com,2013-04-13 16:45:00,
2013-04-13 13:47:00,48.6,36.5,29.61,NW,315,3.8,-999.0,63,-99.99,,,0.00,Acu-Link.com,2013-04-13 17:47:00,
2013-04-13 14:02:00,50.0,36.7,29.60,West,270,3.1,-999.0,60,-99.99,,,0.00,Acu-Link.com,2013-04-13 18:02:00,
2013-04-13 14:17:00,49.8,36.9,29.60,WNW,292,5.8,-999.0,61,-99.99,,,0.00,Acu-Link.com,2013-04-13 18:17:00,
2013-04-13 14:32:00,50.9,36.7,29.60,WNW,292,1.6,-999.0,58,-99.99,,,0.00,Acu-Link.com,2013-04-13 18:32:00,
2013-04-13 14:47:00,50.9,36.7,29.60,NNW,337,1.6,-999.0,58,-99.99,,,0.00,Acu-Link.com,2013-04-13 18:47:00,
2013-04-13 15:03:00,50.0,35.8,29.60,WNW,292,4.7,-999.0,58,-99.99,,,0.00,Acu-Link.com,2013-04-13 19:03:00,
2013-04-13 15:18:00,49.8,36.1,29.59,WNW,292,3.8,-999.0,59,-99.99,,,0.00,Acu-Link.com,2013-04-13 19:18:00,
2013-04-13 15:33:00,49.8,35.6,29.60,NW,315,2.7,-999.0,58,-99.99,,,0.00,Acu-Link.com,2013-04-13 19:33:00,
2013-04-13 15:48:00,50.5,35.9,29.59,NW,315,3.8,-999.0,57,-99.99,,,0.00,Acu-Link.com,2013-04-13 19:48:00,
2013-04-13 16:03:00,51.8,36.6,29.59,NW,315,2.7,-999.0,56,-99.99,,,0.00,Acu-Link.com,2013-04-13 20:03:00,
2013-04-13 16:19:00,52.3,36.2,29.59,WSW,247,2.7,-999.0,54,-99.99,,,0.00,Acu-Link.com,2013-04-13 20:19:00,
2013-04-13 16:34:00,52.5,35.4,29.59,SSW,202,4.3,-999.0,52,-99.99,,,0.00,Acu-Link.com,2013-04-13 20:34:00,
2013-04-13 16:49:00,53.6,35.9,29.60,NW,315,2.2,-999.0,51,-99.99,,,0.00,Acu-Link.com,2013-04-13 20:49:00,
2013-04-13 17:04:00,53.2,35.1,29.61,WNW,292,2.2,-999.0,50,-99.99,,,0.00,Acu-Link.com,2013-04-13 21:04:00,
2013-04-13 17:19:00,52.3,35.2,29.61,North,0,1.6,-999.0,52,-99.99,,,0.00,Acu-Link.com,2013-04-13 21:19:00,
2013-04-13 17:35:00,51.8,35.2,29.63,NW,315,3.8,-999.0,53,-99.99,,,0.00,Acu-Link.com,2013-04-13 21:35:00,
2013-04-13 17:50:00,51.3,35.2,29.63,NNW,337,0.0,-999.0,54,-99.99,,,0.00,Acu-Link.com,2013-04-13 21:50:00,
2013-04-13 18:05:00,50.7,34.7,29.63,SW,225,4.3,-999.0,54,-99.99,,,0.00,Acu-Link.com,2013-04-13 22:05:00,
2013-04-13 18:20:00,50.0,34.9,29.64,West,270,1.6,-999.0,56,-99.99,,,0.00,Acu-Link.com,2013-04-13 22:20:00,
2013-04-13 18:36:00,49.5,35.3,29.65,NW,315,1.6,-999.0,58,-99.99,,,0.00,Acu-Link.com,2013-04-13 22:36:00,
2013-04-13 19:06:00,48.7,35.5,29.65,WNW,292,1.6,-999.0,60,-99.99,,,0.00,Acu-Link.com,2013-04-13 23:06:00,
2013-04-13 19:21:00,48.2,35.4,29.65,West,270,0.0,-999.0,61,-99.99,,,0.00,Acu-Link.com,2013-04-13 23:21:00,
2013-04-13 19:36:00,47.7,35.7,29.65,WNW,292,0.0,-999.0,63,-99.99,,,0.00,Acu-Link.com,2013-04-13 23:36:00,
2013-04-13 19:52:00,47.1,36.0,29.67,North,0,0.0,-999.0,65,-99.99,,,0.00,Acu-Link.com,2013-04-13 23:52:00,
2013-04-13 20:07:00,46.9,36.2,29.68,WNW,292,0.0,-999.0,66,-99.99,,,0.00,Acu-Link.com,2013-04-14 00:07:00,
2013-04-13 20:37:00,46.2,36.3,29.68,WNW,292,0.0,-999.0,68,-99.99,,,0.00,Acu-Link.com,2013-04-14 00:37:00,
2013-04-13 20:52:00,45.9,35.9,29.69,NNW,337,0.0,-999.0,68,-99.99,,,0.00,Acu-Link.com,2013-04-14 00:52:00,
2013-04-13 21:08:00,45.7,36.1,29.69,West,270,0.0,-999.0,69,-99.99,,,0.00,Acu-Link.com,2013-04-14 01:08:00,
2013-04-13 21:23:00,45.5,36.3,29.69,West,270,0.0,-999.0,70,-99.99,,,0.00,Acu-Link.com,2013-04-14 01:23:00,
2013-04-13 21:38:00,45.3,36.1,29.69,West,270,0.0,-999.0,70,-99.99,,,0.00,Acu-Link.com,2013-04-14 01:38:00,
2013-04-13 21:53:00,45.0,36.1,29.70,West,270,0.0,-999.0,71,-99.99,,,0.00,Acu-Link.com,2013-04-14 01:53:00,
2013-04-13 22:08:00,44.8,36.3,29.70,NW,315,0.0,-999.0,72,-99.99,,,0.00,Acu-Link.com,2013-04-14 02:08:00,
2013-04-13 22:24:00,44.8,36.3,29.70,North,0,0.0,-999.0,72,-99.99,,,0.00,Acu-Link.com,2013-04-14 02:24:00,
2013-04-13 22:39:00,44.6,36.5,29.70,SW,225,0.0,-999.0,73,-99.99,,,0.00,Acu-Link.com,2013-04-14 02:39:00,
2013-04-13 22:54:00,44.4,36.7,29.70,NW,315,0.0,-999.0,74,-99.99,,,0.00,Acu-Link.com,2013-04-14 02:54:00,
2013-04-13 23:09:00,44.8,37.0,29.71,South,180,4.7,-999.0,74,-99.99,,,0.00,Acu-Link.com,2013-04-14 03:09:00,
2013-04-13 23:25:00,44.8,38.7,29.73,NNW,337,4.7,-999.0,79,-99.99,,,0.00,Acu-Link.com,2013-04-14 03:25:00,
2013-04-13 23:40:00,44.4,38.3,29.73,WNW,292,3.1,-999.0,79,-99.99,,,0.00,Acu-Link.com,2013-04-14 03:40:00,
2013-04-13 23:55:00,44.4,37.7,29.73,NW,315,1.6,-999.0,77,-99.99,,,0.00,Acu-Link.com,2013-04-14 03:55:00,